sensor_id;sensor_type;location;lat;lon;timestamp;P1;durP1;ratioP1;P2;durP2;ratioP2
5456;SDS011;2751;49.802;9.944;2023-08-17T00:01:40;7.23;;;6.83;;
5456;SDS011;2751;49.802;9.944;2023-08-17T00:04:07;7.00;;;6.57;;
5456;SDS011;2751;49.802;9.944;2023-08-17T00:06:34;7.30;;;6.80;;
5456;SDS011;2751;49.802;9.944;2023-08-17T00:09:01;6.73;;;6.43;;
5456;SDS011;2751;49.802;9.944;2023-08-17T00:11:28;6.90;;;6.50;;
5456;SDS011;2751;49.802;9.944;2023-08-17T00:13:55;6.73;;;6.33;;
5456;SDS011;2751;49.802;9.944;2023-08-17T00:16:22;6.23;;;5.83;;
5456;SDS011;2751;49.802;9.944;2023-08-17T00:18:51;6.20;;;5.90;;
5456;SDS011;2751;49.802;9.944;2023-08-17T00:21:17;7.27;;;6.83;;
5456;SDS011;2751;49.802;9.944;2023-08-17T00:23:44;6.40;;;5.93;;
5456;SDS011;2751;49.802;9.944;2023-08-17T00:26:11;6.67;;;6.27;;
5456;SDS011;2751;49.802;9.944;2023-08-17T00:28:39;6.20;;;5.70;;
5456;SDS011;2751;49.802;9.944;2023-08-17T00:31:06;6.43;;;5.90;;
5456;SDS011;2751;49.802;9.944;2023-08-17T00:33:33;6.13;;;5.73;;
5456;SDS011;2751;49.802;9.944;2023-08-17T00:36:01;7.83;;;4.57;;
5456;SDS011;2751;49.802;9.944;2023-08-17T00:38:28;4.47;;;4.17;;
5456;SDS011;2751;49.802;9.944;2023-08-17T00:40:55;5.10;;;4.80;;
5456;SDS011;2751;49.802;9.944;2023-08-17T00:43:22;5.30;;;5.00;;
5456;SDS011;2751;49.802;9.944;2023-08-17T00:45:49;5.57;;;5.17;;
5456;SDS011;2751;49.802;9.944;2023-08-17T00:48:16;4.60;;;4.40;;
5456;SDS011;2751;49.802;9.944;2023-08-17T00:50:43;5.20;;;4.83;;
5456;SDS011;2751;49.802;9.944;2023-08-17T00:53:14;5.87;;;5.53;;
5456;SDS011;2751;49.802;9.944;2023-08-17T00:55:42;5.47;;;5.17;;
5456;SDS011;2751;49.802;9.944;2023-08-17T00:58:09;4.73;;;4.53;;
5456;SDS011;2751;49.802;9.944;2023-08-17T01:00:36;4.73;;;4.53;;
5456;SDS011;2751;49.802;9.944;2023-08-17T01:03:03;5.30;;;4.80;;
5456;SDS011;2751;49.802;9.944;2023-08-17T01:05:31;5.13;;;4.90;;
5456;SDS011;2751;49.802;9.944;2023-08-17T01:07:58;4.80;;;4.50;;
5456;SDS011;2751;49.802;9.944;2023-08-17T01:10:27;5.17;;;4.90;;
5456;SDS011;2751;49.802;9.944;2023-08-17T01:13:04;4.50;;;4.20;;
5456;SDS011;2751;49.802;9.944;2023-08-17T01:15:37;4.47;;;4.27;;
5456;SDS011;2751;49.802;9.944;2023-08-17T01:18:09;5.50;;;4.50;;
5456;SDS011;2751;49.802;9.944;2023-08-17T01:20:42;5.10;;;4.90;;
5456;SDS011;2751;49.802;9.944;2023-08-17T01:23:11;5.90;;;5.20;;
5456;SDS011;2751;49.802;9.944;2023-08-17T01:25:38;4.97;;;4.77;;
5456;SDS011;2751;49.802;9.944;2023-08-17T01:28:05;4.83;;;4.63;;
5456;SDS011;2751;49.802;9.944;2023-08-17T01:30:33;5.20;;;4.90;;
5456;SDS011;2751;49.802;9.944;2023-08-17T01:33:06;4.70;;;4.40;;
5456;SDS011;2751;49.802;9.944;2023-08-17T01:35:37;4.50;;;4.30;;
5456;SDS011;2751;49.802;9.944;2023-08-17T01:38:14;4.50;;;4.30;;
5456;SDS011;2751;49.802;9.944;2023-08-17T01:40:43;4.67;;;4.47;;
5456;SDS011;2751;49.802;9.944;2023-08-17T01:43:12;5.67;;;5.37;;
5456;SDS011;2751;49.802;9.944;2023-08-17T01:45:39;5.33;;;4.93;;
5456;SDS011;2751;49.802;9.944;2023-08-17T01:48:06;4.00;;;3.80;;
5456;SDS011;2751;49.802;9.944;2023-08-17T01:50:33;4.00;;;3.80;;
5456;SDS011;2751;49.802;9.944;2023-08-17T01:53:00;4.07;;;3.83;;
5456;SDS011;2751;49.802;9.944;2023-08-17T01:55:28;4.10;;;3.90;;
5456;SDS011;2751;49.802;9.944;2023-08-17T01:57:55;4.00;;;3.87;;
5456;SDS011;2751;49.802;9.944;2023-08-17T02:00:22;4.50;;;4.10;;
5456;SDS011;2751;49.802;9.944;2023-08-17T02:02:49;4.50;;;4.30;;
5456;SDS011;2751;49.802;9.944;2023-08-17T02:05:16;5.00;;;4.50;;
5456;SDS011;2751;49.802;9.944;2023-08-17T02:07:43;4.93;;;4.73;;
5456;SDS011;2751;49.802;9.944;2023-08-17T02:10:10;4.60;;;4.30;;
5456;SDS011;2751;49.802;9.944;2023-08-17T02:12:38;6.30;;;4.77;;
5456;SDS011;2751;49.802;9.944;2023-08-17T02:15:05;4.50;;;4.20;;
5456;SDS011;2751;49.802;9.944;2023-08-17T02:17:33;4.80;;;4.40;;
5456;SDS011;2751;49.802;9.944;2023-08-17T02:20:00;3.90;;;3.80;;
5456;SDS011;2751;49.802;9.944;2023-08-17T02:22:28;3.87;;;3.77;;
5456;SDS011;2751;49.802;9.944;2023-08-17T02:24:55;4.60;;;4.20;;
5456;SDS011;2751;49.802;9.944;2023-08-17T02:27:22;4.00;;;3.80;;
5456;SDS011;2751;49.802;9.944;2023-08-17T02:29:50;4.47;;;4.23;;
5456;SDS011;2751;49.802;9.944;2023-08-17T02:32:17;4.13;;;3.87;;
5456;SDS011;2751;49.802;9.944;2023-08-17T02:34:44;3.70;;;3.57;;
5456;SDS011;2751;49.802;9.944;2023-08-17T02:37:10;4.83;;;4.00;;
5456;SDS011;2751;49.802;9.944;2023-08-17T02:39:37;4.57;;;4.17;;
5456;SDS011;2751;49.802;9.944;2023-08-17T02:42:09;4.40;;;4.20;;
5456;SDS011;2751;49.802;9.944;2023-08-17T02:44:36;3.77;;;3.57;;
5456;SDS011;2751;49.802;9.944;2023-08-17T02:47:05;4.43;;;4.13;;
5456;SDS011;2751;49.802;9.944;2023-08-17T02:49:32;4.30;;;4.03;;
5456;SDS011;2751;49.802;9.944;2023-08-17T02:51:58;6.07;;;3.90;;
5456;SDS011;2751;49.802;9.944;2023-08-17T02:54:25;8.60;;;3.80;;
5456;SDS011;2751;49.802;9.944;2023-08-17T02:56:52;3.67;;;3.47;;
5456;SDS011;2751;49.802;9.944;2023-08-17T02:59:19;4.23;;;3.80;;
5456;SDS011;2751;49.802;9.944;2023-08-17T03:01:46;3.50;;;3.20;;
5456;SDS011;2751;49.802;9.944;2023-08-17T03:04:14;3.43;;;3.13;;
5456;SDS011;2751;49.802;9.944;2023-08-17T03:06:41;3.20;;;2.93;;
5456;SDS011;2751;49.802;9.944;2023-08-17T03:09:08;4.10;;;2.93;;
5456;SDS011;2751;49.802;9.944;2023-08-17T03:11:35;3.40;;;3.20;;
5456;SDS011;2751;49.802;9.944;2023-08-17T03:14:01;4.13;;;3.20;;
5456;SDS011;2751;49.802;9.944;2023-08-17T03:16:29;3.80;;;3.60;;
5456;SDS011;2751;49.802;9.944;2023-08-17T03:18:56;2.90;;;2.70;;
5456;SDS011;2751;49.802;9.944;2023-08-17T03:21:24;3.20;;;3.00;;
5456;SDS011;2751;49.802;9.944;2023-08-17T03:23:51;3.50;;;3.30;;
5456;SDS011;2751;49.802;9.944;2023-08-17T03:26:18;4.70;;;4.30;;
5456;SDS011;2751;49.802;9.944;2023-08-17T03:28:45;13.37;;;11.53;;
5456;SDS011;2751;49.802;9.944;2023-08-17T03:31:12;4.07;;;3.67;;
5456;SDS011;2751;49.802;9.944;2023-08-17T03:33:39;4.63;;;3.17;;
5456;SDS011;2751;49.802;9.944;2023-08-17T03:36:06;3.40;;;3.10;;
5456;SDS011;2751;49.802;9.944;2023-08-17T03:38:34;3.50;;;3.30;;
5456;SDS011;2751;49.802;9.944;2023-08-17T03:41:02;4.03;;;3.73;;
5456;SDS011;2751;49.802;9.944;2023-08-17T03:43:30;3.70;;;3.43;;
5456;SDS011;2751;49.802;9.944;2023-08-17T03:45:57;3.93;;;3.07;;
5456;SDS011;2751;49.802;9.944;2023-08-17T03:48:24;3.33;;;3.13;;
5456;SDS011;2751;49.802;9.944;2023-08-17T03:50:51;3.60;;;3.30;;
5456;SDS011;2751;49.802;9.944;2023-08-17T03:53:19;4.40;;;3.57;;
5456;SDS011;2751;49.802;9.944;2023-08-17T03:55:47;3.63;;;3.33;;
5456;SDS011;2751;49.802;9.944;2023-08-17T03:58:14;3.47;;;3.17;;
5456;SDS011;2751;49.802;9.944;2023-08-17T04:00:41;4.53;;;3.13;;
5456;SDS011;2751;49.802;9.944;2023-08-17T04:03:08;5.10;;;3.60;;
5456;SDS011;2751;49.802;9.944;2023-08-17T04:05:35;4.57;;;4.10;;
5456;SDS011;2751;49.802;9.944;2023-08-17T04:08:02;3.67;;;3.47;;
5456;SDS011;2751;49.802;9.944;2023-08-17T04:10:29;3.80;;;3.00;;
5456;SDS011;2751;49.802;9.944;2023-08-17T04:12:58;7.77;;;3.40;;
5456;SDS011;2751;49.802;9.944;2023-08-17T04:15:25;3.90;;;3.60;;
5456;SDS011;2751;49.802;9.944;2023-08-17T04:17:52;3.10;;;2.90;;
5456;SDS011;2751;49.802;9.944;2023-08-17T04:20:19;4.10;;;3.70;;
5456;SDS011;2751;49.802;9.944;2023-08-17T04:22:46;3.40;;;3.20;;
5456;SDS011;2751;49.802;9.944;2023-08-17T04:25:13;5.47;;;3.77;;
5456;SDS011;2751;49.802;9.944;2023-08-17T04:27:40;3.37;;;3.17;;
5456;SDS011;2751;49.802;9.944;2023-08-17T04:30:09;6.73;;;6.13;;
5456;SDS011;2751;49.802;9.944;2023-08-17T04:32:37;3.43;;;3.23;;
5456;SDS011;2751;49.802;9.944;2023-08-17T04:35:04;4.37;;;3.77;;
5456;SDS011;2751;49.802;9.944;2023-08-17T04:37:32;3.60;;;3.30;;
5456;SDS011;2751;49.802;9.944;2023-08-17T04:39:59;3.27;;;3.03;;
5456;SDS011;2751;49.802;9.944;2023-08-17T04:42:26;4.30;;;3.30;;
5456;SDS011;2751;49.802;9.944;2023-08-17T04:44:53;4.80;;;3.77;;
5456;SDS011;2751;49.802;9.944;2023-08-17T04:47:21;5.40;;;3.63;;
5456;SDS011;2751;49.802;9.944;2023-08-17T04:49:48;3.23;;;3.03;;
5456;SDS011;2751;49.802;9.944;2023-08-17T04:52:15;3.60;;;3.30;;
5456;SDS011;2751;49.802;9.944;2023-08-17T04:54:41;9.27;;;8.47;;
5456;SDS011;2751;49.802;9.944;2023-08-17T04:57:08;3.33;;;3.13;;
5456;SDS011;2751;49.802;9.944;2023-08-17T04:59:35;2.90;;;2.70;;
5456;SDS011;2751;49.802;9.944;2023-08-17T05:02:02;3.93;;;3.33;;
5456;SDS011;2751;49.802;9.944;2023-08-17T05:04:30;6.67;;;3.50;;
5456;SDS011;2751;49.802;9.944;2023-08-17T05:06:57;5.00;;;4.00;;
5456;SDS011;2751;49.802;9.944;2023-08-17T05:09:24;3.70;;;3.40;;
5456;SDS011;2751;49.802;9.944;2023-08-17T05:11:52;4.03;;;3.73;;
5456;SDS011;2751;49.802;9.944;2023-08-17T05:14:19;4.20;;;3.90;;
5456;SDS011;2751;49.802;9.944;2023-08-17T05:16:46;3.50;;;3.20;;
5456;SDS011;2751;49.802;9.944;2023-08-17T05:19:13;3.10;;;2.90;;
5456;SDS011;2751;49.802;9.944;2023-08-17T05:21:41;3.67;;;3.37;;
5456;SDS011;2751;49.802;9.944;2023-08-17T05:24:08;4.17;;;3.80;;
5456;SDS011;2751;49.802;9.944;2023-08-17T05:26:35;4.43;;;4.00;;
5456;SDS011;2751;49.802;9.944;2023-08-17T05:29:02;3.90;;;3.60;;
5456;SDS011;2751;49.802;9.944;2023-08-17T05:31:29;3.90;;;3.60;;
5456;SDS011;2751;49.802;9.944;2023-08-17T05:33:55;4.67;;;4.27;;
5456;SDS011;2751;49.802;9.944;2023-08-17T05:36:22;4.03;;;3.73;;
5456;SDS011;2751;49.802;9.944;2023-08-17T05:38:50;3.73;;;3.50;;
5456;SDS011;2751;49.802;9.944;2023-08-17T05:41:17;4.53;;;4.23;;
5456;SDS011;2751;49.802;9.944;2023-08-17T05:43:44;4.57;;;4.17;;
5456;SDS011;2751;49.802;9.944;2023-08-17T05:46:11;5.10;;;4.60;;
5456;SDS011;2751;49.802;9.944;2023-08-17T05:48:38;5.03;;;4.73;;
5456;SDS011;2751;49.802;9.944;2023-08-17T05:51:07;4.93;;;4.47;;
5456;SDS011;2751;49.802;9.944;2023-08-17T05:53:34;4.53;;;4.33;;
5456;SDS011;2751;49.802;9.944;2023-08-17T05:56:03;4.47;;;4.27;;
5456;SDS011;2751;49.802;9.944;2023-08-17T05:58:30;4.80;;;4.50;;
5456;SDS011;2751;49.802;9.944;2023-08-17T06:01:03;5.63;;;5.17;;
5456;SDS011;2751;49.802;9.944;2023-08-17T06:03:31;5.33;;;4.83;;
5456;SDS011;2751;49.802;9.944;2023-08-17T06:05:58;8.40;;;5.23;;
5456;SDS011;2751;49.802;9.944;2023-08-17T06:08:25;4.90;;;4.63;;
5456;SDS011;2751;49.802;9.944;2023-08-17T06:10:51;5.23;;;4.93;;
5456;SDS011;2751;49.802;9.944;2023-08-17T06:13:20;5.03;;;4.63;;
5456;SDS011;2751;49.802;9.944;2023-08-17T06:15:47;5.50;;;4.97;;
5456;SDS011;2751;49.802;9.944;2023-08-17T06:18:14;5.77;;;5.47;;
5456;SDS011;2751;49.802;9.944;2023-08-17T06:20:40;5.93;;;5.40;;
5456;SDS011;2751;49.802;9.944;2023-08-17T06:23:07;6.13;;;5.60;;
5456;SDS011;2751;49.802;9.944;2023-08-17T06:25:34;5.53;;;5.13;;
5456;SDS011;2751;49.802;9.944;2023-08-17T06:28:01;5.83;;;5.50;;
5456;SDS011;2751;49.802;9.944;2023-08-17T06:30:30;6.93;;;5.63;;
5456;SDS011;2751;49.802;9.944;2023-08-17T06:32:56;8.13;;;5.43;;
5456;SDS011;2751;49.802;9.944;2023-08-17T06:35:24;6.97;;;6.37;;
5456;SDS011;2751;49.802;9.944;2023-08-17T06:37:51;6.53;;;5.87;;
5456;SDS011;2751;49.802;9.944;2023-08-17T06:40:21;6.53;;;6.13;;
5456;SDS011;2751;49.802;9.944;2023-08-17T06:42:48;6.70;;;6.30;;
5456;SDS011;2751;49.802;9.944;2023-08-17T06:45:15;6.60;;;6.03;;
5456;SDS011;2751;49.802;9.944;2023-08-17T06:47:44;6.77;;;6.37;;
5456;SDS011;2751;49.802;9.944;2023-08-17T06:50:13;7.27;;;6.67;;
5456;SDS011;2751;49.802;9.944;2023-08-17T06:52:40;7.43;;;7.03;;
5456;SDS011;2751;49.802;9.944;2023-08-17T06:55:07;9.03;;;6.73;;
5456;SDS011;2751;49.802;9.944;2023-08-17T06:57:35;7.33;;;6.67;;
5456;SDS011;2751;49.802;9.944;2023-08-17T07:00:02;6.67;;;6.27;;
5456;SDS011;2751;49.802;9.944;2023-08-17T07:02:30;7.07;;;6.37;;
5456;SDS011;2751;49.802;9.944;2023-08-17T07:04:59;11.67;;;10.60;;
5456;SDS011;2751;49.802;9.944;2023-08-17T07:07:25;6.93;;;6.53;;
5456;SDS011;2751;49.802;9.944;2023-08-17T07:09:52;7.43;;;7.03;;
5456;SDS011;2751;49.802;9.944;2023-08-17T07:12:19;8.43;;;6.60;;
5456;SDS011;2751;49.802;9.944;2023-08-17T07:14:46;7.60;;;7.20;;
5456;SDS011;2751;49.802;9.944;2023-08-17T07:17:13;8.27;;;7.77;;
5456;SDS011;2751;49.802;9.944;2023-08-17T07:19:40;8.10;;;7.70;;
5456;SDS011;2751;49.802;9.944;2023-08-17T07:22:08;8.57;;;7.80;;
5456;SDS011;2751;49.802;9.944;2023-08-17T07:24:35;12.13;;;7.37;;
5456;SDS011;2751;49.802;9.944;2023-08-17T07:27:03;11.73;;;7.70;;
5456;SDS011;2751;49.802;9.944;2023-08-17T07:29:30;8.80;;;8.27;;
5456;SDS011;2751;49.802;9.944;2023-08-17T07:31:57;8.90;;;8.30;;
5456;SDS011;2751;49.802;9.944;2023-08-17T07:34:26;8.27;;;7.87;;
5456;SDS011;2751;49.802;9.944;2023-08-17T07:36:54;9.27;;;8.57;;
5456;SDS011;2751;49.802;9.944;2023-08-17T07:39:22;8.33;;;7.83;;
5456;SDS011;2751;49.802;9.944;2023-08-17T07:41:50;7.80;;;7.37;;
5456;SDS011;2751;49.802;9.944;2023-08-17T07:44:17;9.17;;;8.63;;
5456;SDS011;2751;49.802;9.944;2023-08-17T07:46:44;11.50;;;9.50;;
5456;SDS011;2751;49.802;9.944;2023-08-17T07:49:10;10.00;;;9.30;;
5456;SDS011;2751;49.802;9.944;2023-08-17T07:51:37;9.73;;;9.23;;
5456;SDS011;2751;49.802;9.944;2023-08-17T07:54:04;10.20;;;9.60;;
5456;SDS011;2751;49.802;9.944;2023-08-17T07:56:32;10.37;;;9.77;;
5456;SDS011;2751;49.802;9.944;2023-08-17T07:58:59;10.67;;;9.87;;
5456;SDS011;2751;49.802;9.944;2023-08-17T08:01:26;10.27;;;9.67;;
5456;SDS011;2751;49.802;9.944;2023-08-17T08:03:53;10.10;;;9.40;;
5456;SDS011;2751;49.802;9.944;2023-08-17T08:06:20;10.67;;;9.87;;
5456;SDS011;2751;49.802;9.944;2023-08-17T08:08:47;11.00;;;10.43;;
5456;SDS011;2751;49.802;9.944;2023-08-17T08:11:13;10.93;;;10.30;;
5456;SDS011;2751;49.802;9.944;2023-08-17T08:13:42;11.67;;;10.87;;
5456;SDS011;2751;49.802;9.944;2023-08-17T08:16:09;11.80;;;11.20;;
5456;SDS011;2751;49.802;9.944;2023-08-17T08:18:36;12.67;;;11.87;;
5456;SDS011;2751;49.802;9.944;2023-08-17T08:21:03;13.07;;;12.20;;
5456;SDS011;2751;49.802;9.944;2023-08-17T08:23:29;13.80;;;12.80;;
5456;SDS011;2751;49.802;9.944;2023-08-17T08:25:56;14.30;;;13.30;;
5456;SDS011;2751;49.802;9.944;2023-08-17T08:28:24;13.77;;;13.07;;
5456;SDS011;2751;49.802;9.944;2023-08-17T08:30:52;13.20;;;12.50;;
5456;SDS011;2751;49.802;9.944;2023-08-17T08:33:19;15.03;;;14.03;;
5456;SDS011;2751;49.802;9.944;2023-08-17T08:35:46;14.50;;;13.70;;
5456;SDS011;2751;49.802;9.944;2023-08-17T08:38:13;12.73;;;12.13;;
5456;SDS011;2751;49.802;9.944;2023-08-17T08:40:40;14.80;;;14.00;;
5456;SDS011;2751;49.802;9.944;2023-08-17T08:43:08;14.57;;;13.80;;
5456;SDS011;2751;49.802;9.944;2023-08-17T08:45:35;15.60;;;14.23;;
5456;SDS011;2751;49.802;9.944;2023-08-17T08:48:04;14.37;;;13.50;;
5456;SDS011;2751;49.802;9.944;2023-08-17T08:50:32;15.43;;;14.47;;
5456;SDS011;2751;49.802;9.944;2023-08-17T08:53:02;14.80;;;13.90;;
5456;SDS011;2751;49.802;9.944;2023-08-17T08:55:36;14.73;;;13.70;;
5456;SDS011;2751;49.802;9.944;2023-08-17T08:58:05;15.20;;;14.30;;
5456;SDS011;2751;49.802;9.944;2023-08-17T09:00:32;15.70;;;14.70;;
5456;SDS011;2751;49.802;9.944;2023-08-17T09:03:01;15.30;;;14.40;;
5456;SDS011;2751;49.802;9.944;2023-08-17T09:05:30;17.80;;;16.60;;
5456;SDS011;2751;49.802;9.944;2023-08-17T09:07:59;14.87;;;13.97;;
5456;SDS011;2751;49.802;9.944;2023-08-17T09:10:28;15.17;;;14.37;;
5456;SDS011;2751;49.802;9.944;2023-08-17T09:12:55;15.10;;;14.10;;
5456;SDS011;2751;49.802;9.944;2023-08-17T09:15:22;14.53;;;13.73;;
5456;SDS011;2751;49.802;9.944;2023-08-17T09:17:48;14.60;;;13.87;;
5456;SDS011;2751;49.802;9.944;2023-08-17T09:20:37;15.20;;;14.30;;
5456;SDS011;2751;49.802;9.944;2023-08-17T09:23:09;14.70;;;13.90;;
5456;SDS011;2751;49.802;9.944;2023-08-17T09:25:38;14.67;;;13.77;;
5456;SDS011;2751;49.802;9.944;2023-08-17T09:28:09;14.50;;;13.60;;
5456;SDS011;2751;49.802;9.944;2023-08-17T09:30:50;14.33;;;13.43;;
5456;SDS011;2751;49.802;9.944;2023-08-17T09:33:18;14.50;;;13.70;;
5456;SDS011;2751;49.802;9.944;2023-08-17T09:35:48;14.50;;;13.60;;
5456;SDS011;2751;49.802;9.944;2023-08-17T09:38:15;13.87;;;12.97;;
5456;SDS011;2751;49.802;9.944;2023-08-17T09:40:42;13.67;;;12.97;;
5456;SDS011;2751;49.802;9.944;2023-08-17T09:43:09;13.67;;;12.80;;
5456;SDS011;2751;49.802;9.944;2023-08-17T09:45:37;13.60;;;12.90;;
5456;SDS011;2751;49.802;9.944;2023-08-17T09:48:04;14.63;;;13.57;;
5456;SDS011;2751;49.802;9.944;2023-08-17T09:50:32;13.50;;;12.70;;
5456;SDS011;2751;49.802;9.944;2023-08-17T09:53:00;15.03;;;13.60;;
5456;SDS011;2751;49.802;9.944;2023-08-17T09:55:29;13.63;;;12.80;;
5456;SDS011;2751;49.802;9.944;2023-08-17T09:57:57;13.27;;;12.57;;
5456;SDS011;2751;49.802;9.944;2023-08-17T10:00:24;13.30;;;12.50;;
5456;SDS011;2751;49.802;9.944;2023-08-17T10:02:52;13.80;;;12.90;;
5456;SDS011;2751;49.802;9.944;2023-08-17T10:05:19;13.50;;;12.80;;
5456;SDS011;2751;49.802;9.944;2023-08-17T10:07:49;14.53;;;13.20;;
5456;SDS011;2751;49.802;9.944;2023-08-17T10:10:22;13.80;;;13.00;;
5456;SDS011;2751;49.802;9.944;2023-08-17T10:12:53;13.63;;;12.70;;
5456;SDS011;2751;49.802;9.944;2023-08-17T10:15:29;13.63;;;12.77;;
5456;SDS011;2751;49.802;9.944;2023-08-17T10:18:00;12.60;;;11.90;;
5456;SDS011;2751;49.802;9.944;2023-08-17T10:20:34;12.27;;;11.57;;
5456;SDS011;2751;49.802;9.944;2023-08-17T10:23:05;12.40;;;11.80;;
5456;SDS011;2751;49.802;9.944;2023-08-17T10:25:39;12.70;;;11.80;;
5456;SDS011;2751;49.802;9.944;2023-08-17T10:28:07;12.30;;;11.63;;
5456;SDS011;2751;49.802;9.944;2023-08-17T10:30:35;13.83;;;12.67;;
5456;SDS011;2751;49.802;9.944;2023-08-17T10:33:02;13.43;;;12.60;;
5456;SDS011;2751;49.802;9.944;2023-08-17T10:35:31;12.30;;;11.50;;
5456;SDS011;2751;49.802;9.944;2023-08-17T10:37:59;12.37;;;11.63;;
5456;SDS011;2751;49.802;9.944;2023-08-17T10:40:26;12.70;;;12.00;;
5456;SDS011;2751;49.802;9.944;2023-08-17T10:42:55;12.70;;;12.00;;
5456;SDS011;2751;49.802;9.944;2023-08-17T10:45:25;12.10;;;11.40;;
5456;SDS011;2751;49.802;9.944;2023-08-17T10:51:01;12.53;;;11.53;;
5456;SDS011;2751;49.802;9.944;2023-08-17T10:53:33;12.43;;;11.73;;
5456;SDS011;2751;49.802;9.944;2023-08-17T10:56:04;12.03;;;11.43;;
5456;SDS011;2751;49.802;9.944;2023-08-17T10:58:34;12.30;;;11.63;;
5456;SDS011;2751;49.802;9.944;2023-08-17T11:01:01;11.60;;;11.00;;
5456;SDS011;2751;49.802;9.944;2023-08-17T11:03:28;11.10;;;10.60;;
5456;SDS011;2751;49.802;9.944;2023-08-17T11:05:55;12.13;;;11.53;;
5456;SDS011;2751;49.802;9.944;2023-08-17T11:08:23;12.20;;;11.40;;
5456;SDS011;2751;49.802;9.944;2023-08-17T11:10:57;11.50;;;10.90;;
5456;SDS011;2751;49.802;9.944;2023-08-17T11:13:27;11.83;;;11.13;;
5456;SDS011;2751;49.802;9.944;2023-08-17T11:15:57;11.83;;;10.80;;
5456;SDS011;2751;49.802;9.944;2023-08-17T11:18:25;11.70;;;11.10;;
5456;SDS011;2751;49.802;9.944;2023-08-17T11:20:52;12.70;;;11.80;;
5456;SDS011;2751;49.802;9.944;2023-08-17T11:23:20;11.40;;;10.73;;
5456;SDS011;2751;49.802;9.944;2023-08-17T11:25:47;11.90;;;11.13;;
5456;SDS011;2751;49.802;9.944;2023-08-17T11:28:16;11.60;;;11.00;;
5456;SDS011;2751;49.802;9.944;2023-08-17T11:30:43;11.30;;;10.70;;
5456;SDS011;2751;49.802;9.944;2023-08-17T11:33:11;11.13;;;10.60;;
5456;SDS011;2751;49.802;9.944;2023-08-17T11:35:38;11.33;;;10.70;;
5456;SDS011;2751;49.802;9.944;2023-08-17T11:38:06;11.60;;;10.70;;
5456;SDS011;2751;49.802;9.944;2023-08-17T11:40:33;12.10;;;11.50;;
5456;SDS011;2751;49.802;9.944;2023-08-17T11:43:01;11.70;;;10.90;;
5456;SDS011;2751;49.802;9.944;2023-08-17T11:45:28;11.03;;;10.40;;
5456;SDS011;2751;49.802;9.944;2023-08-17T11:47:55;10.40;;;10.00;;
5456;SDS011;2751;49.802;9.944;2023-08-17T11:50:24;11.47;;;10.97;;
5456;SDS011;2751;49.802;9.944;2023-08-17T11:52:51;11.40;;;10.90;;
5456;SDS011;2751;49.802;9.944;2023-08-17T11:55:18;12.13;;;11.33;;
5456;SDS011;2751;49.802;9.944;2023-08-17T11:57:45;11.10;;;10.37;;
5456;SDS011;2751;49.802;9.944;2023-08-17T12:00:17;11.00;;;10.50;;
5456;SDS011;2751;49.802;9.944;2023-08-17T12:02:48;11.97;;;11.27;;
5456;SDS011;2751;49.802;9.944;2023-08-17T12:05:21;10.50;;;9.90;;
5456;SDS011;2751;49.802;9.944;2023-08-17T12:07:53;11.67;;;11.10;;
5456;SDS011;2751;49.802;9.944;2023-08-17T12:10:21;11.70;;;11.10;;
5456;SDS011;2751;49.802;9.944;2023-08-17T12:12:48;11.00;;;10.10;;
5456;SDS011;2751;49.802;9.944;2023-08-17T12:15:15;11.70;;;10.67;;
5456;SDS011;2751;49.802;9.944;2023-08-17T12:17:44;10.03;;;9.40;;
5456;SDS011;2751;49.802;9.944;2023-08-17T12:20:15;11.33;;;10.60;;
5456;SDS011;2751;49.802;9.944;2023-08-17T12:22:45;10.17;;;9.60;;
5456;SDS011;2751;49.802;9.944;2023-08-17T12:25:12;10.53;;;10.03;;
5456;SDS011;2751;49.802;9.944;2023-08-17T12:27:39;10.37;;;9.77;;
5456;SDS011;2751;49.802;9.944;2023-08-17T12:30:11;11.13;;;10.40;;
5456;SDS011;2751;49.802;9.944;2023-08-17T12:32:39;10.97;;;10.37;;
5456;SDS011;2751;49.802;9.944;2023-08-17T12:35:06;10.90;;;10.23;;
5456;SDS011;2751;49.802;9.944;2023-08-17T12:37:33;11.70;;;11.20;;
5456;SDS011;2751;49.802;9.944;2023-08-17T12:40:02;10.40;;;9.70;;
5456;SDS011;2751;49.802;9.944;2023-08-17T12:42:30;11.60;;;11.10;;
5456;SDS011;2751;49.802;9.944;2023-08-17T12:44:57;11.27;;;10.70;;
5456;SDS011;2751;49.802;9.944;2023-08-17T12:47:24;10.07;;;9.57;;
5456;SDS011;2751;49.802;9.944;2023-08-17T12:49:50;11.27;;;10.67;;
5456;SDS011;2751;49.802;9.944;2023-08-17T12:52:17;11.70;;;10.83;;
5456;SDS011;2751;49.802;9.944;2023-08-17T12:54:44;10.57;;;9.90;;
5456;SDS011;2751;49.802;9.944;2023-08-17T12:57:13;10.57;;;10.07;;
5456;SDS011;2751;49.802;9.944;2023-08-17T12:59:41;10.53;;;10.03;;
5456;SDS011;2751;49.802;9.944;2023-08-17T13:02:07;10.70;;;10.20;;
5456;SDS011;2751;49.802;9.944;2023-08-17T13:04:34;11.63;;;10.93;;
5456;SDS011;2751;49.802;9.944;2023-08-17T13:07:01;11.07;;;10.40;;
5456;SDS011;2751;49.802;9.944;2023-08-17T13:09:28;10.60;;;10.10;;
5456;SDS011;2751;49.802;9.944;2023-08-17T13:11:55;10.30;;;9.90;;
5456;SDS011;2751;49.802;9.944;2023-08-17T13:14:23;10.90;;;10.30;;
5456;SDS011;2751;49.802;9.944;2023-08-17T13:16:51;10.90;;;10.50;;
5456;SDS011;2751;49.802;9.944;2023-08-17T13:19:18;11.60;;;10.97;;
5456;SDS011;2751;49.802;9.944;2023-08-17T13:21:45;11.57;;;11.00;;
5456;SDS011;2751;49.802;9.944;2023-08-17T13:24:12;11.00;;;10.50;;
5456;SDS011;2751;49.802;9.944;2023-08-17T13:26:39;11.40;;;10.90;;
5456;SDS011;2751;49.802;9.944;2023-08-17T13:29:06;12.17;;;11.47;;
5456;SDS011;2751;49.802;9.944;2023-08-17T13:31:35;12.37;;;11.80;;
5456;SDS011;2751;49.802;9.944;2023-08-17T13:34:02;12.93;;;11.97;;
5456;SDS011;2751;49.802;9.944;2023-08-17T13:36:29;12.23;;;11.43;;
5456;SDS011;2751;49.802;9.944;2023-08-17T13:38:56;11.80;;;11.13;;
5456;SDS011;2751;49.802;9.944;2023-08-17T13:41:23;11.53;;;11.03;;
5456;SDS011;2751;49.802;9.944;2023-08-17T13:43:50;11.50;;;11.00;;
5456;SDS011;2751;49.802;9.944;2023-08-17T13:46:17;11.30;;;10.80;;
5456;SDS011;2751;49.802;9.944;2023-08-17T13:48:45;11.97;;;11.27;;
5456;SDS011;2751;49.802;9.944;2023-08-17T13:51:12;9.25;;;8.75;;
5456;SDS011;2751;49.802;9.944;2023-08-17T13:56:36;11.20;;;10.70;;
5456;SDS011;2751;49.802;9.944;2023-08-17T13:59:03;11.33;;;10.83;;
5456;SDS011;2751;49.802;9.944;2023-08-17T14:01:30;12.47;;;11.87;;
5456;SDS011;2751;49.802;9.944;2023-08-17T14:03:59;11.90;;;11.10;;
5456;SDS011;2751;49.802;9.944;2023-08-17T14:06:28;11.53;;;10.80;;
5456;SDS011;2751;49.802;9.944;2023-08-17T14:08:55;11.57;;;10.80;;
5456;SDS011;2751;49.802;9.944;2023-08-17T14:11:22;11.27;;;10.60;;
5456;SDS011;2751;49.802;9.944;2023-08-17T14:13:48;11.60;;;11.00;;
5456;SDS011;2751;49.802;9.944;2023-08-17T14:16:15;13.33;;;12.60;;
5456;SDS011;2751;49.802;9.944;2023-08-17T14:18:42;11.77;;;11.23;;
5456;SDS011;2751;49.802;9.944;2023-08-17T14:21:10;11.93;;;11.27;;
5456;SDS011;2751;49.802;9.944;2023-08-17T14:23:37;12.23;;;11.53;;
5456;SDS011;2751;49.802;9.944;2023-08-17T14:26:05;12.30;;;11.70;;
5456;SDS011;2751;49.802;9.944;2023-08-17T14:28:32;12.67;;;11.93;;
5456;SDS011;2751;49.802;9.944;2023-08-17T14:30:59;12.30;;;11.70;;
5456;SDS011;2751;49.802;9.944;2023-08-17T14:33:26;14.07;;;13.17;;
5456;SDS011;2751;49.802;9.944;2023-08-17T14:35:52;14.23;;;13.50;;
5456;SDS011;2751;49.802;9.944;2023-08-17T14:38:21;14.10;;;13.30;;
5456;SDS011;2751;49.802;9.944;2023-08-17T14:40:48;15.50;;;14.50;;
5456;SDS011;2751;49.802;9.944;2023-08-17T14:43:15;14.57;;;13.77;;
5456;SDS011;2751;49.802;9.944;2023-08-17T14:45:42;13.10;;;12.40;;
5456;SDS011;2751;49.802;9.944;2023-08-17T14:48:09;13.93;;;13.03;;
5456;SDS011;2751;49.802;9.944;2023-08-17T14:50:36;16.20;;;15.20;;
5456;SDS011;2751;49.802;9.944;2023-08-17T14:53:04;14.73;;;13.83;;
5456;SDS011;2751;49.802;9.944;2023-08-17T14:55:33;15.90;;;14.77;;
5456;SDS011;2751;49.802;9.944;2023-08-17T14:58:00;14.97;;;14.17;;
5456;SDS011;2751;49.802;9.944;2023-08-17T15:00:27;15.10;;;14.30;;
5456;SDS011;2751;49.802;9.944;2023-08-17T15:02:55;15.17;;;14.17;;
5456;SDS011;2751;49.802;9.944;2023-08-17T15:05:22;16.03;;;15.13;;
5456;SDS011;2751;49.802;9.944;2023-08-17T15:07:49;15.77;;;14.77;;
5456;SDS011;2751;49.802;9.944;2023-08-17T15:10:16;15.00;;;14.10;;
5456;SDS011;2751;49.802;9.944;2023-08-17T15:12:44;14.83;;;13.93;;